Time;durP1;ratioP1;P1;durP2;ratioP2;P2;SDS_P1;SDS_P2;PMS_P1;PMS_P2;Temp;Humidity;BMP_temperature;BMP_pressure;BME280_temperature;BME280_humidity;BME280_pressure;Samples;Min_cycle;Max_cycle;Signal;HPM_P1;HPM_P2
2021/04/11 00:00:49;;;;;;;1.83;1.70;;;13.50;61.80;;;;;;5041167;28;20445;-83
2021/04/11 00:03:20;;;;;;;1.93;1.83;;;13.40;62.00;;;;;;5040237;28;20444;-84
2021/04/11 00:05:48;;;;;;;3.80;3.43;;;13.40;62.00;;;;;;5041517;28;20473;-83
2021/04/11 00:08:15;;;;;;;2.47;1.97;;;13.40;62.20;;;;;;5040990;28;20487;-83
2021/04/11 00:10:44;;;;;;;2.20;1.80;;;13.40;62.40;;;;;;5041073;28;20452;-83
2021/04/11 00:13:13;;;;;;;1.80;1.70;;;13.30;62.50;;;;;;5041396;28;20445;-83
2021/04/11 00:15:39;;;;;;;3.07;1.93;;;13.30;62.80;;;;;;5041602;28;20452;-82
2021/04/11 00:18:06;;;;;;;2.10;2.00;;;13.30;62.70;;;;;;5040399;28;20481;-84
2021/04/11 00:20:32;;;;;;;3.13;2.13;;;13.20;63.10;;;;;;5041919;28;20477;-84
2021/04/11 00:22:59;;;;;;;1.70;1.60;;;13.20;63.40;;;;;;5040164;28;20467;-84
2021/04/11 00:25:30;;;;;;;2.50;2.30;;;13.10;63.60;;;;;;5040136;28;20484;-84
2021/04/11 00:27:56;;;;;;;2.60;2.30;;;13.00;63.80;;;;;;5040162;28;20447;-83
2021/04/11 00:30:23;;;;;;;2.47;2.00;;;13.00;64.00;;;;;;5039821;28;20484;-83
2021/04/11 00:32:50;;;;;;;2.27;1.77;;;12.90;63.90;;;;;;5039800;28;20453;-84
2021/04/11 00:35:17;;;;;;;2.87;1.90;;;12.90;64.10;;;;;;5039443;28;20452;-83
2021/04/11 00:37:43;;;;;;;1.83;1.73;;;12.80;64.20;;;;;;5039942;28;20486;-83
2021/04/11 00:40:13;;;;;;;2.00;1.70;;;12.80;64.40;;;;;;5039917;28;20487;-82
2021/04/11 00:42:43;;;;;;;2.57;2.00;;;12.80;64.60;;;;;;5039929;28;20456;-83
2021/04/11 00:45:18;;;;;;;2.30;2.00;;;12.70;64.70;;;;;;5039826;28;20492;-83
2021/04/11 00:47:44;;;;;;;3.03;2.83;;;12.60;65.00;;;;;;5039825;28;20451;-83
2021/04/11 00:50:13;;;;;;;2.10;1.80;;;12.50;65.40;;;;;;5039247;28;20477;-83
2021/04/11 00:52:39;;;;;;;1.87;1.77;;;12.50;65.60;;;;;;5039469;28;20457;-82
2021/04/11 00:55:06;;;;;;;3.93;1.60;;;12.40;65.90;;;;;;5038889;28;20452;-83
2021/04/11 00:57:34;;;;;;;1.53;1.43;;;12.40;66.10;;;;;;5039160;28;20460;-83
2021/04/11 01:00:00;;;;;;;2.00;1.90;;;12.40;66.30;;;;;;5039002;28;20484;-83
2021/04/11 01:02:27;;;;;;;1.97;1.80;;;12.30;66.40;;;;;;5039664;28;20449;-83
2021/04/11 01:04:54;;;;;;;1.50;1.47;;;12.30;66.40;;;;;;5038903;28;20996;-82
2021/04/11 01:07:21;;;;;;;1.50;1.40;;;12.30;66.50;;;;;;5039678;28;20449;-81
2021/04/11 01:09:48;;;;;;;2.20;1.70;;;12.30;66.50;;;;;;5038783;28;20499;-83
2021/04/11 01:12:20;;;;;;;1.83;1.70;;;12.40;66.60;;;;;;5039660;28;20488;-83
2021/04/11 01:14:48;;;;;;;2.13;2.00;;;12.40;66.60;;;;;;5039516;28;20433;-83
2021/04/11 01:17:18;;;;;;;2.47;2.20;;;12.40;66.70;;;;;;5039220;28;20471;-83
2021/04/11 01:19:46;;;;;;;1.73;1.50;;;12.50;67.10;;;;;;5039805;28;20479;-83
2021/04/11 01:22:22;;;;;;;2.10;1.90;;;12.50;66.90;;;;;;5039261;28;20455;-83
2021/04/11 01:24:53;;;;;;;1.90;1.80;;;12.50;66.70;;;;;;5039406;28;20483;-82
2021/04/11 01:27:22;;;;;;;1.90;1.60;;;12.50;66.90;;;;;;5039196;28;20459;-83
2021/04/11 01:29:51;;;;;;;1.73;1.33;;;12.50;66.80;;;;;;5039549;28;20832;-83
2021/04/11 01:32:18;;;;;;;1.73;1.63;;;12.50;66.80;;;;;;5038967;28;20460;-83
2021/04/11 01:34:44;;;;;;;2.43;1.93;;;12.50;66.80;;;;;;5039122;28;20444;-83
2021/04/11 01:37:14;;;;;;;1.60;1.50;;;12.50;66.80;;;;;;5039616;28;20449;-83
2021/04/11 01:39:43;;;;;;;1.83;1.73;;;12.50;66.70;;;;;;5039715;28;20492;-83
2021/04/11 01:42:11;;;;;;;1.80;1.70;;;12.50;66.80;;;;;;5039715;28;20448;-83
2021/04/11 01:44:41;;;;;;;2.17;2.07;;;12.50;67.20;;;;;;5039432;28;20941;-83
2021/04/11 01:47:08;;;;;;;2.57;2.37;;;12.50;67.80;;;;;;5038528;28;20806;-83
2021/04/11 01:49:34;;;;;;;2.27;1.90;;;12.50;68.20;;;;;;5082663;22;20497;-86
2021/04/11 01:52:06;;;;;;;4.37;2.20;;;12.50;68.40;;;;;;5091355;28;20447;-86
2021/04/11 01:54:36;;;;;;;2.37;2.20;;;12.50;68.60;;;;;;5092117;28;20452;-85
2021/04/11 01:57:06;;;;;;;2.17;1.97;;;12.50;69.00;;;;;;5091977;28;20872;-86
2021/04/11 01:59:36;;;;;;;3.57;2.00;;;12.50;69.20;;;;;;5092079;28;20492;-85
2021/04/11 02:02:04;;;;;;;1.90;1.30;;;12.50;69.40;;;;;;5091562;28;20445;-85
2021/04/11 02:04:31;;;;;;;2.00;1.90;;;12.50;70.10;;;;;;5092063;28;20451;-86
2021/04/11 02:07:02;;;;;;;5.23;2.50;;;12.50;70.50;;;;;;5092089;28;20456;-86
2021/04/11 02:09:31;;;;;;;2.83;2.53;;;12.50;70.90;;;;;;5091751;28;20488;-86
2021/04/11 02:11:59;;;;;;;3.17;2.13;;;12.50;70.80;;;;;;5091724;28;20529;-85
2021/04/11 02:14:26;;;;;;;2.20;2.10;;;12.50;70.50;;;;;;5091893;28;20449;-84
2021/04/11 02:16:55;;;;;;;3.80;2.47;;;12.50;70.60;;;;;;5092118;28;20461;-85
2021/04/11 02:19:23;;;;;;;5.57;2.17;;;12.50;70.40;;;;;;5091870;28;20470;-85
2021/04/11 02:21:57;;;;;;;4.07;2.40;;;12.50;70.30;;;;;;5095835;28;20457;-85
2021/04/11 02:24:23;;;;;;;3.70;2.03;;;12.50;70.90;;;;;;5095705;28;20988;-85
2021/04/11 02:26:51;;;;;;;2.30;2.00;;;12.60;71.00;;;;;;5095672;28;20507;-85
2021/04/11 02:29:22;;;;;;;3.70;2.07;;;12.60;71.40;;;;;;5095315;28;20476;-85
2021/04/11 02:31:49;;;;;;;2.30;2.07;;;12.60;71.70;;;;;;5095679;28;20814;-85
2021/04/11 02:34:23;;;;;;;1.73;1.63;;;12.60;71.40;;;;;;5095826;28;20446;-85
2021/04/11 02:36:54;;;;;;;2.77;2.57;;;12.60;71.10;;;;;;5095572;28;20452;-84
2021/04/11 02:39:24;;;;;;;2.50;1.80;;;12.50;70.50;;;;;;5095515;28;21167;-86
2021/04/11 02:41:51;;;;;;;2.00;1.90;;;12.50;70.50;;;;;;5095193;28;20865;-85
2021/04/11 02:44:18;;;;;;;1.90;1.80;;;12.50;70.80;;;;;;5095607;28;20457;-85
2021/04/11 02:46:45;;;;;;;3.47;3.27;;;12.40;71.00;;;;;;5094493;28;20445;-85
2021/04/11 02:49:14;;;;;;;2.83;2.03;;;12.40;71.40;;;;;;5094056;28;20473;-85
2021/04/11 02:51:42;;;;;;;2.90;2.27;;;12.40;71.20;;;;;;5095078;28;20442;-85
2021/04/11 02:54:11;;;;;;;2.60;2.40;;;12.40;71.00;;;;;;5095301;28;20454;-85
2021/04/11 02:56:39;;;;;;;1.77;1.67;;;12.40;70.70;;;;;;5095210;28;20442;-85
2021/04/11 02:59:06;;;;;;;1.80;1.70;;;12.40;70.50;;;;;;5095212;28;20447;-85
2021/04/11 03:01:40;;;;;;;2.10;1.70;;;12.40;71.10;;;;;;5094888;28;20457;-85
2021/04/11 03:04:12;;;;;;;1.93;1.80;;;12.40;70.30;;;;;;5095129;28;20449;-86
2021/04/11 03:06:41;;;;;;;1.90;1.80;;;12.50;70.00;;;;;;5095004;28;20513;-86
2021/04/11 03:09:15;;;;;;;1.83;1.73;;;12.40;69.80;;;;;;5094810;28;20462;-85
2021/04/11 03:11:47;;;;;;;1.80;1.70;;;12.40;69.80;;;;;;5094894;28;20449;-86
2021/04/11 03:14:15;;;;;;;2.30;2.10;;;12.50;70.10;;;;;;5095020;28;20453;-86
2021/04/11 03:16:43;;;;;;;2.30;2.10;;;12.50;70.30;;;;;;5094744;28;20458;-85
2021/04/11 03:19:10;;;;;;;2.50;1.90;;;12.50;70.20;;;;;;5094681;28;20978;-86
2021/04/11 03:21:41;;;;;;;1.60;1.50;;;12.50;70.10;;;;;;5094671;28;20446;-86
2021/04/11 03:24:08;;;;;;;1.93;1.83;;;12.50;70.30;;;;;;5094898;28;20456;-85
2021/04/11 03:26:41;;;;;;;1.87;1.77;;;12.50;70.40;;;;;;5094618;28;20497;-86
2021/04/11 03:29:12;;;;;;;1.90;1.60;;;12.50;70.50;;;;;;5094418;28;20535;-85
2021/04/11 03:31:46;;;;;;;8.87;2.50;;;12.50;70.50;;;;;;5093138;28;20460;-85
2021/04/11 03:34:15;;;;;;;2.13;1.87;;;12.40;70.70;;;;;;5094726;28;20466;-86
2021/04/11 03:36:43;;;;;;;2.57;1.80;;;12.40;71.40;;;;;;5094353;28;20461;-84
2021/04/11 03:39:12;;;;;;;2.37;2.20;;;12.30;72.40;;;;;;5094320;28;20485;-85
2021/04/11 03:41:40;;;;;;;3.83;2.30;;;12.30;73.00;;;;;;5094187;28;20477;-85
2021/04/11 03:44:11;;;;;;;3.80;1.90;;;12.20;72.80;;;;;;5094242;28;20458;-85
2021/04/11 03:46:42;;;;;;;3.00;2.27;;;12.20;73.20;;;;;;5094442;28;20493;-85
2021/04/11 03:49:16;;;;;;;5.70;2.27;;;12.20;73.30;;;;;;5094141;28;20478;-86
2021/04/11 03:51:45;;;;;;;2.80;1.60;;;12.20;73.40;;;;;;5094188;28;20540;-85
2021/04/11 03:54:15;;;;;;;3.50;2.57;;;12.20;73.60;;;;;;5094090;28;20454;-85
2021/04/11 03:56:44;;;;;;;11.30;4.70;;;12.20;73.90;;;;;;5093980;28;20823;-85
2021/04/11 03:59:17;;;;;;;4.63;2.63;;;12.20;74.00;;;;;;5094165;28;20481;-84
2021/04/11 04:01:49;;;;;;;5.20;2.77;;;12.20;73.90;;;;;;5093693;28;20465;-85
2021/04/11 04:04:17;;;;;;;3.33;3.07;;;12.10;73.90;;;;;;5094095;28;20510;-85
2021/04/11 04:07:09;;;;;;;3.57;2.23;;;12.10;73.90;;;;;;5093780;28;20551;-85
2021/04/11 04:09:37;;;;;;;6.57;3.07;;;12.10;74.00;;;;;;5093880;28;20482;-85
2021/04/11 04:12:30;;;;;;;4.00;2.67;;;12.00;74.00;;;;;;5093597;28;20453;-84
2021/04/11 04:15:06;;;;;;;7.17;2.53;;;11.90;74.50;;;;;;5081022;28;20450;-86
2021/04/11 04:17:40;;;;;;;3.10;2.27;;;11.90;74.90;;;;;;5093640;28;20445;-85
2021/04/11 04:20:12;;;;;;;3.70;3.07;;;11.90;75.00;;;;;;5093823;28;20465;-85
2021/04/11 04:22:49;;;;;;;2.30;2.10;;;11.90;75.10;;;;;;5093465;28;20558;-84
2021/04/11 04:25:29;;;;;;;4.43;2.50;;;11.90;75.10;;;;;;5093462;28;20858;-85
2021/04/11 04:28:10;;;;;;;2.43;1.70;;;11.90;75.20;;;;;;5093537;28;20457;-85
2021/04/11 04:30:50;;;;;;;2.27;2.07;;;12.00;75.30;;;;;;5093546;28;20470;-85
2021/04/11 04:33:51;;;;;;;2.27;2.10;;;12.00;75.50;;;;;;5093268;28;20495;-85
2021/04/11 04:36:31;;;;;;;1.90;1.80;;;12.00;75.70;;;;;;5089064;28;20448;-85
2021/04/11 04:39:05;;;;;;;1.90;1.63;;;12.00;75.90;;;;;;5093400;28;20469;-85
2021/04/11 04:41:40;;;;;;;5.30;1.83;;;12.00;76.00;;;;;;5092935;28;20497;-86
2021/04/11 04:44:18;;;;;;;3.20;1.93;;;12.00;75.80;;;;;;5093083;28;20444;-85
2021/04/11 04:46:48;;;;;;;2.97;2.10;;;12.10;76.30;;;;;;5093056;28;20538;-85
2021/04/11 04:49:20;;;;;;;1.80;1.63;;;12.10;76.50;;;;;;5093475;28;20486;-85
2021/04/11 04:51:51;;;;;;;2.53;1.90;;;12.10;76.60;;;;;;5092851;28;20954;-85
2021/04/11 04:54:27;;;;;;;2.20;1.83;;;12.10;76.60;;;;;;5093046;28;20453;-86
2021/04/11 04:56:59;;;;;;;3.73;2.50;;;12.10;76.70;;;;;;5092846;28;20444;-85
2021/04/11 04:59:30;;;;;;;2.43;2.23;;;12.10;77.10;;;;;;5093035;28;20557;-86
2021/04/11 05:02:04;;;;;;;4.73;2.43;;;12.10;77.10;;;;;;5092747;28;20540;-86
2021/04/11 05:04:34;;;;;;;3.60;2.77;;;12.10;76.80;;;;;;5092877;28;20446;-85
2021/04/11 05:07:04;;;;;;;1.90;1.80;;;12.10;76.60;;;;;;5092811;28;20449;-85
2021/04/11 05:09:39;;;;;;;2.50;2.30;;;12.10;76.90;;;;;;5092513;28;20466;-85
2021/04/11 05:12:11;;;;;;;3.47;2.67;;;12.10;76.70;;;;;;5092670;28;20877;-86
2021/04/11 05:14:41;;;;;;;2.37;1.97;;;12.10;76.30;;;;;;5092767;28;20442;-85
2021/04/11 05:17:13;;;;;;;2.63;2.10;;;12.20;76.70;;;;;;5092514;28;20545;-85
2021/04/11 05:19:42;;;;;;;2.13;1.90;;;12.20;77.40;;;;;;5092506;28;20462;-85
2021/04/11 05:22:15;;;;;;;3.00;2.80;;;12.20;77.60;;;;;;5092267;28;20806;-85
2021/04/11 05:24:46;;;;;;;2.60;2.27;;;12.20;78.10;;;;;;5092499;28;20807;-85
2021/04/11 05:27:25;;;;;;;1.90;1.80;;;12.30;78.30;;;;;;5092517;28;20837;-85
2021/04/11 05:29:56;;;;;;;4.37;2.83;;;12.30;78.60;;;;;;5092422;28;20469;-85
2021/04/11 05:32:23;;;;;;;3.43;2.20;;;12.30;78.50;;;;;;5092023;28;20447;-86
2021/04/11 05:34:50;;;;;;;3.00;2.33;;;12.30;78.70;;;;;;5092459;28;20450;-85
2021/04/11 05:37:28;;;;;;;4.50;2.47;;;12.30;78.90;;;;;;5092278;28;20450;-85
2021/04/11 05:40:03;;;;;;;2.00;1.90;;;12.40;79.50;;;;;;5092313;28;20528;-85
2021/04/11 05:42:39;;;;;;;3.60;1.80;;;12.40;79.60;;;;;;5092022;28;20450;-85
2021/04/11 05:45:13;;;;;;;4.07;2.53;;;12.50;79.70;;;;;;5092347;28;20519;-85
2021/04/11 05:47:48;;;;;;;3.43;2.20;;;12.50;79.70;;;;;;5092154;28;20460;-85
2021/04/11 05:50:19;;;;;;;3.50;2.90;;;12.60;79.90;;;;;;5092740;28;20488;-85
2021/04/11 05:52:49;;;;;;;2.03;1.93;;;12.70;79.90;;;;;;5091969;28;20568;-86
2021/04/11 05:55:19;;;;;;;4.97;2.60;;;12.70;79.80;;;;;;5091416;28;20488;-86
2021/04/11 05:57:51;;;;;;;5.53;2.70;;;12.80;80.00;;;;;;5092432;28;20485;-86
2021/04/11 06:00:24;;;;;;;2.73;2.53;;;12.90;79.90;;;;;;5092031;28;20470;-86
2021/04/11 06:02:53;;;;;;;4.50;2.97;;;13.00;79.90;;;;;;5091686;28;20454;-85
2021/04/11 06:05:27;;;;;;;5.80;2.50;;;13.00;79.90;;;;;;5092006;28;20499;-86
2021/04/11 06:08:00;;;;;;;3.80;2.97;;;13.10;80.20;;;;;;5091976;28;20439;-84
2021/04/11 06:10:34;;;;;;;3.10;2.80;;;13.20;79.40;;;;;;5092061;28;20466;-85
2021/04/11 06:13:05;;;;;;;3.57;2.90;;;13.30;79.40;;;;;;5091656;28;20947;-86
2021/04/11 06:15:35;;;;;;;2.90;2.60;;;13.40;79.30;;;;;;5085009;28;20444;-85
2021/04/11 06:18:05;;;;;;;3.30;2.70;;;13.40;79.10;;;;;;5084737;28;20439;-85
2021/04/11 06:20:32;;;;;;;3.43;2.53;;;13.50;79.40;;;;;;5083848;28;20981;-87
2021/04/11 06:23:14;;;;;;;2.47;2.10;;;13.60;79.10;;;;;;5085826;28;20447;-87
2021/04/11 06:25:49;;;;;;;2.80;2.00;;;13.60;78.90;;;;;;5081689;28;20482;-86
2021/04/11 06:28:23;;;;;;;2.33;2.23;;;13.70;79.60;;;;;;5083664;28;20446;-86
2021/04/11 06:30:55;;;;;;;3.63;2.67;;;13.80;79.20;;;;;;5088080;28;20464;-86
2021/04/11 06:33:25;;;;;;;1.77;1.67;;;13.90;77.00;;;;;;5084496;28;20937;-86
2021/04/11 06:35:56;;;;;;;2.83;2.50;;;14.00;74.70;;;;;;5085773;28;20435;-85
2021/04/11 06:38:27;;;;;;;6.60;2.70;;;14.00;77.20;;;;;;5086803;28;20445;-86
2021/04/11 06:41:10;;;;;;;3.10;2.70;;;14.00;78.50;;;;;;5086810;28;20462;-86
2021/04/11 06:44:03;;;;;;;3.00;2.47;;;14.00;77.60;;;;;;5085869;28;20442;-86
2021/04/11 06:46:37;;;;;;;3.63;2.13;;;14.10;76.10;;;;;;5059417;28;20487;-86
2021/04/11 06:49:41;;;;;;;3.13;2.27;;;14.20;75.70;;;;;;5084185;28;21003;-86
2021/04/11 06:52:29;;;;;;;3.67;2.60;;;14.30;74.80;;;;;;5054760;28;20447;-84
2021/04/11 06:55:16;;;;;;;2.33;2.03;;;14.40;74.30;;;;;;5098700;28;20462;-83
2021/04/11 06:57:50;;;;;;;3.07;2.63;;;14.50;74.80;;;;;;5098073;28;20481;-84
2021/04/11 07:00:33;;;;;;;2.13;2.00;;;14.60;74.10;;;;;;5098124;28;20455;-84
2021/04/11 07:03:36;;;;;;;2.43;2.33;;;14.80;74.90;;;;;;5097851;28;20504;-84
2021/04/11 07:06:40;;;;;;;2.03;1.93;;;14.90;74.90;;;;;;5098564;28;20478;-84
2021/04/11 07:09:49;;;;;;;3.63;2.90;;;15.00;74.50;;;;;;5101800;28;20468;-84
2021/04/11 07:13:07;;;;;;;2.73;2.53;;;15.20;73.20;;;;;;5059624;28;20462;-83
2021/04/11 07:15:53;;;;;;;3.27;2.53;;;15.30;72.50;;;;;;5101986;28;20443;-84
2021/04/11 07:18:57;;;;;;;2.13;2.03;;;15.50;72.70;;;;;;5102417;28;20447;-84
2021/04/11 07:22:03;;;;;;;2.87;2.30;;;15.60;72.00;;;;;;5101822;28;20454;-84
2021/04/11 07:24:59;;;;;;;2.23;2.03;;;15.80;71.90;;;;;;5101353;28;20455;-83
2021/04/11 07:27:52;;;;;;;2.27;2.13;;;15.90;71.00;;;;;;5099002;28;20605;-84
2021/04/11 07:30:31;;;;;;;2.73;2.50;;;16.00;70.90;;;;;;5055408;28;20470;-84
2021/04/11 07:33:52;;;;;;;2.10;2.00;;;16.10;69.70;;;;;;5102012;28;20451;-83
2021/04/11 07:36:54;;;;;;;2.57;2.37;;;16.10;68.80;;;;;;5099630;28;20448;-83
2021/04/11 07:39:37;;;;;;;3.13;2.00;;;16.10;69.10;;;;;;5056252;28;20476;-84
2021/04/11 07:42:29;;;;;;;2.33;2.20;;;16.10;68.30;;;;;;5101251;28;20455;-84
2021/04/11 07:45:15;;;;;;;2.33;2.13;;;16.10;68.40;;;;;;5101781;28;20448;-84
2021/04/11 07:48:15;;;;;;;3.03;2.53;;;16.10;69.20;;;;;;5102021;28;20500;-83
2021/04/11 07:51:04;;;;;;;2.93;2.40;;;16.10;69.50;;;;;;5098954;28;20478;-84
2021/04/11 07:53:53;;;;;;;2.67;2.47;;;16.00;69.20;;;;;;5093242;28;20462;-83
2021/04/11 07:56:24;;;;;;;2.10;2.00;;;16.10;69.80;;;;;;5096820;28;20442;-84
2021/04/11 07:59:08;;;;;;;1.70;1.60;;;16.10;69.20;;;;;;5096801;28;20450;-83
2021/04/11 08:02:09;;;;;;;3.20;1.53;;;16.00;69.40;;;;;;5097090;28;20513;-84
2021/04/11 08:05:00;;;;;;;1.13;1.03;;;16.00;68.20;;;;;;5098395;28;20445;-83
2021/04/11 08:07:43;;;;;;;2.33;2.13;;;16.00;67.90;;;;;;5098422;28;20818;-84
2021/04/11 08:10:23;;;;;;;1.67;1.10;;;16.00;68.70;;;;;;5099083;28;20469;-83
2021/04/11 08:13:09;;;;;;;1.30;1.23;;;15.90;68.30;;;;;;5101875;28;20461;-84
2021/04/11 08:15:44;;;;;;;1.40;1.30;;;16.00;68.30;;;;;;5101527;28;20447;-83
2021/04/11 08:18:24;;;;;;;1.77;1.50;;;16.10;68.60;;;;;;5101765;28;20481;-83
2021/04/11 08:21:07;;;;;;;2.30;1.33;;;16.10;68.10;;;;;;5102522;28;20470;-83
2021/04/11 08:24:07;;;;;;;4.77;1.10;;;16.20;68.40;;;;;;5101391;28;20451;-83
2021/04/11 08:27:09;;;;;;;2.00;1.70;;;16.30;67.90;;;;;;5101428;28;20486;-83
2021/04/11 08:29:57;;;;;;;1.50;1.40;;;16.30;67.50;;;;;;5065644;28;20470;-83
2021/04/11 08:32:54;;;;;;;1.10;1.03;;;16.50;67.60;;;;;;5101304;28;20463;-84
2021/04/11 08:35:39;;;;;;;0.97;0.93;;;16.60;67.80;;;;;;5100948;28;20443;-84
2021/04/11 08:38:31;;;;;;;5.87;1.50;;;16.70;67.30;;;;;;5094333;28;20451;-85
2021/04/11 08:41:22;;;;;;;1.50;1.40;;;16.90;66.80;;;;;;5093487;28;20539;-84
2021/04/11 08:44:07;;;;;;;1.73;1.40;;;17.00;66.60;;;;;;5093229;28;20476;-84
2021/04/11 08:46:45;;;;;;;1.70;1.40;;;17.10;65.40;;;;;;5093826;28;20488;-85
2021/04/11 08:49:21;;;;;;;1.07;0.97;;;17.10;65.50;;;;;;5097403;28;20481;-85
2021/04/11 08:51:59;;;;;;;2.00;1.07;;;17.10;64.60;;;;;;5099892;28;20448;-84
2021/04/11 08:54:37;;;;;;;5.07;1.20;;;17.10;64.70;;;;;;5104728;28;20459;-85
2021/04/11 08:57:47;;;;;;;3.27;1.63;;;17.10;64.90;;;;;;5102284;28;20455;-85
2021/04/11 09:00:21;;;;;;;1.80;1.40;;;17.30;64.60;;;;;;5104003;28;20996;-85
2021/04/11 09:03:16;;;;;;;1.20;1.10;;;17.30;65.00;;;;;;5102137;28;20514;-85
2021/04/11 09:05:53;;;;;;;2.03;1.57;;;17.40;64.80;;;;;;5093101;28;20473;-85
2021/04/11 09:08:30;;;;;;;1.23;1.13;;;17.50;65.00;;;;;;5083496;28;20444;-85
2021/04/11 09:11:29;;;;;;;1.90;0.93;;;17.60;65.00;;;;;;5082251;28;20978;-84
2021/04/11 09:14:09;;;;;;;0.90;0.90;;;17.70;63.50;;;;;;5077565;28;20794;-84
2021/04/11 09:16:48;;;;;;;1.00;0.97;;;17.70;63.30;;;;;;5085967;28;20438;-85
2021/04/11 09:19:22;;;;;;;1.67;1.30;;;17.80;63.40;;;;;;5093174;28;20474;-85
2021/04/11 09:22:19;;;;;;;3.83;3.27;;;17.90;63.60;;;;;;5092472;28;20823;-85
2021/04/11 09:24:50;;;;;;;1.33;1.20;;;18.00;64.00;;;;;;5092616;28;20449;-85
2021/04/11 09:27:41;;;;;;;1.53;1.43;;;18.10;62.30;;;;;;5092513;28;20590;-85
2021/04/11 09:30:24;;;;;;;0.87;0.87;;;18.20;62.40;;;;;;5092061;28;20464;-85
2021/04/11 09:33:22;;;;;;;1.20;1.10;;;18.30;62.30;;;;;;5091850;28;20447;-85
2021/04/11 09:36:04;;;;;;;1.90;0.83;;;18.40;62.10;;;;;;5085401;28;20946;-85
2021/04/11 09:38:54;;;;;;;1.10;1.10;;;18.50;61.10;;;;;;5093786;28;20511;-84
2021/04/11 09:41:51;;;;;;;2.70;1.57;;;18.60;60.70;;;;;;5093237;28;20438;-83
2021/04/11 09:44:49;;;;;;;1.93;1.40;;;18.60;60.40;;;;;;5092942;28;20558;-84
2021/04/11 09:47:37;;;;;;;1.43;1.33;;;18.60;60.20;;;;;;5094043;28;20489;-85
2021/04/11 09:50:23;;;;;;;1.80;1.20;;;18.50;60.40;;;;;;5091682;28;20477;-84
2021/04/11 09:53:26;;;;;;;1.80;1.53;;;18.50;60.50;;;;;;5086008;28;20794;-84
2021/04/11 09:56:02;;;;;;;1.60;1.10;;;18.50;60.10;;;;;;5047432;28;20518;-84
2021/04/11 09:59:04;;;;;;;1.77;1.10;;;18.40;59.80;;;;;;5083624;28;20446;-85
2021/04/11 10:01:49;;;;;;;2.40;1.50;;;18.40;60.10;;;;;;5053333;28;20510;-84
2021/04/11 10:04:38;;;;;;;1.80;1.47;;;18.30;61.20;;;;;;5085742;28;20452;-85
2021/04/11 10:07:40;;;;;;;2.27;2.10;;;18.30;60.50;;;;;;5087467;28;20478;-82
2021/04/11 10:10:21;;;;;;;1.47;1.13;;;18.40;60.70;;;;;;5090748;28;20468;-82
2021/04/11 10:13:13;;;;;;;2.20;2.07;;;18.40;59.80;;;;;;5096984;28;20950;-82
2021/04/11 10:16:11;;;;;;;2.80;1.90;;;18.50;60.00;;;;;;5095793;28;20479;-84
2021/04/11 10:19:01;;;;;;;1.17;1.07;;;18.40;59.50;;;;;;5089996;28;20503;-85
2021/04/11 10:21:36;;;;;;;2.27;1.30;;;18.70;58.70;;;;;;5049233;28;20450;-84
2021/04/11 10:24:27;;;;;;;2.40;1.60;;;18.90;58.70;;;;;;5079914;28;20437;-84
2021/04/11 10:27:02;;;;;;;3.80;1.70;;;19.00;58.00;;;;;;5104842;28;20487;-85
2021/04/11 10:29:29;;;;;;;4.70;4.30;;;19.20;57.60;;;;;;5105348;28;20561;-84
2021/04/11 10:32:19;;;;;;;1.90;1.73;;;19.40;57.60;;;;;;5102383;28;20446;-84
2021/04/11 10:35:10;;;;;;;3.27;3.07;;;19.50;57.10;;;;;;5083948;28;20529;-84
2021/04/11 10:37:40;;;;;;;1.10;1.00;;;19.70;57.20;;;;;;5085029;28;20447;-83
2021/04/11 10:40:20;;;;;;;0.97;0.97;;;19.80;56.40;;;;;;5104325;28;20553;-84
2021/04/11 10:42:59;;;;;;;1.60;1.50;;;19.80;55.50;;;;;;5095610;28;20458;-84
2021/04/11 10:45:32;;;;;;;1.10;1.10;;;19.50;55.90;;;;;;5095786;28;20854;-84
2021/04/11 10:48:16;;;;;;;2.30;2.13;;;19.60;55.80;;;;;;5111260;28;20442;-84
2021/04/11 10:58:35;;;;;;;1.60;1.23;;;19.20;56.00;;;;;;4935212;29;20978;-86
2021/04/11 11:01:20;;;;;;;1.20;1.10;;;19.10;56.40;;;;;;4935451;29;20468;-87
2021/04/11 11:04:14;;;;;;;1.13;1.13;;;19.10;56.30;;;;;;5013210;28;20445;-85
2021/04/11 11:07:09;;;;;;;1.37;1.27;;;19.00;56.70;;;;;;5035122;28;20490;-84
2021/04/11 11:09:40;;;;;;;1.67;1.57;;;19.00;56.60;;;;;;5099211;28;20474;-84
2021/04/11 11:12:35;;;;;;;2.63;1.50;;;19.00;56.60;;;;;;5099352;28;20464;-85
2021/04/11 11:15:43;;;;;;;1.50;1.40;;;18.90;56.60;;;;;;5093304;28;20468;-87
2021/04/11 11:19:15;;;;;;;3.63;1.50;;;18.70;57.30;;;;;;5088291;28;20536;-90
2021/04/11 11:22:03;;;;;;;1.70;1.60;;;18.60;57.30;;;;;;5020254;28;20510;-85
2021/04/11 11:24:52;;;;;;;2.87;1.83;;;18.70;57.30;;;;;;5045695;28;20445;-84
2021/04/11 11:28:07;;;;;;;2.50;1.90;;;18.80;58.00;;;;;;5099507;28;20488;-84
2021/04/11 11:30:50;;;;;;;3.23;1.40;;;19.00;57.20;;;;;;5099868;28;20479;-84
2021/04/11 11:33:28;;;;;;;3.23;1.47;;;19.20;57.40;;;;;;5099793;28;20443;-84
2021/04/11 11:36:04;;;;;;;2.50;1.40;;;19.40;57.10;;;;;;5098183;28;20454;-84
2021/04/11 11:38:42;;;;;;;1.73;1.63;;;19.70;56.60;;;;;;5098016;28;20473;-84
2021/04/11 11:41:14;;;;;;;1.77;1.60;;;19.90;56.20;;;;;;5097569;28;20536;-84
2021/04/11 11:43:50;;;;;;;1.50;1.40;;;20.10;55.80;;;;;;5098555;28;20453;-84
2021/04/11 11:46:29;;;;;;;1.40;1.30;;;20.20;55.40;;;;;;5098779;28;20875;-85
2021/04/11 11:49:06;;;;;;;1.70;1.60;;;20.40;55.20;;;;;;5098455;28;20456;-84
2021/04/11 11:51:41;;;;;;;4.20;1.70;;;20.60;55.10;;;;;;5097891;28;20455;-84
2021/04/11 11:54:12;;;;;;;1.70;1.60;;;20.90;55.30;;;;;;5099260;28;20532;-84
2021/04/11 11:56:42;;;;;;;1.93;1.83;;;21.60;55.40;;;;;;5097938;28;20448;-84
2021/04/11 11:59:17;;;;;;;2.40;1.77;;;22.30;52.90;;;;;;5096443;28;20487;-84
2021/04/11 12:01:52;;;;;;;1.93;1.80;;;22.70;52.00;;;;;;5095681;28;20462;-83
2021/04/11 12:04:45;;;;;;;2.40;2.30;;;22.80;51.90;;;;;;5097862;28;20828;-84
2021/04/11 12:07:22;;;;;;;1.47;1.37;;;23.00;51.60;;;;;;5093930;28;20498;-84
2021/04/11 12:10:26;;;;;;;1.63;1.53;;;23.50;51.60;;;;;;5099503;28;20975;-86
2021/04/11 12:13:23;;;;;;;3.53;1.70;;;24.40;50.10;;;;;;5104175;28;20506;-85
2021/04/11 12:15:58;;;;;;;2.43;1.83;;;24.70;48.50;;;;;;5097927;28;20481;-87
2021/04/11 12:18:38;;;;;;;1.53;1.43;;;24.90;47.80;;;;;;5104856;28;20442;-86
2021/04/11 12:21:18;;;;;;;1.77;1.67;;;25.40;47.20;;;;;;5097804;28;20451;-84
2021/04/11 12:23:55;;;;;;;1.03;1.03;;;25.90;46.80;;;;;;5096578;28;20432;-84
2021/04/11 12:26:27;;;;;;;1.80;1.40;;;26.40;45.00;;;;;;5103788;28;20489;-86
2021/04/11 12:28:54;;;;;;;2.73;1.60;;;26.50;44.00;;;;;;5104740;28;20453;-86
2021/04/11 12:31:28;;;;;;;1.77;1.67;;;27.00;44.20;;;;;;5104550;28;20457;-88
2021/04/11 12:34:03;;;;;;;1.10;1.00;;;27.60;43.40;;;;;;5103365;28;20443;-83
2021/04/11 12:36:44;;;;;;;1.30;1.20;;;28.60;41.40;;;;;;5104470;28;20444;-84
2021/04/11 12:39:15;;;;;;;1.83;1.10;;;28.40;40.10;;;;;;5103820;28;20467;-84
2021/04/11 12:41:48;;;;;;;1.77;1.67;;;27.60;40.20;;;;;;5104023;28;20449;-84
2021/04/11 12:44:20;;;;;;;1.30;1.20;;;26.70;41.00;;;;;;5105268;28;20461;-84
2021/04/11 12:47:05;;;;;;;1.40;1.20;;;25.90;42.80;;;;;;5104414;28;20494;-84
2021/04/11 12:49:51;;;;;;;2.03;1.87;;;25.40;42.70;;;;;;5103655;28;20482;-84
2021/04/11 12:52:26;;;;;;;1.53;1.43;;;24.80;43.30;;;;;;5103945;28;20466;-83
2021/04/11 12:54:59;;;;;;;1.43;1.33;;;24.00;45.00;;;;;;5103515;28;20466;-84
2021/04/11 12:57:30;;;;;;;2.10;1.33;;;23.40;45.40;;;;;;5103356;28;20472;-84
2021/04/11 13:00:00;;;;;;;3.47;1.63;;;23.10;46.30;;;;;;5103614;28;20467;-84
2021/04/11 13:02:37;;;;;;;1.67;1.57;;;22.70;47.00;;;;;;5103216;28;20803;-84
2021/04/11 13:05:08;;;;;;;2.07;1.73;;;22.50;47.60;;;;;;5103804;28;20452;-84
2021/04/11 13:07:41;;;;;;;1.40;1.30;;;22.40;47.60;;;;;;5103865;28;20485;-84
2021/04/11 13:10:22;;;;;;;1.40;1.07;;;22.80;48.90;;;;;;5103175;28;20489;-83
2021/04/11 13:12:57;;;;;;;2.50;1.17;;;23.90;48.20;;;;;;5103001;28;20442;-83
2021/04/11 13:15:30;;;;;;;1.13;1.10;;;24.50;46.40;;;;;;5099755;28;20458;-82
2021/04/11 13:18:07;;;;;;;1.50;1.17;;;24.70;46.00;;;;;;5102685;28;20972;-82
2021/04/11 13:20:40;;;;;;;1.83;1.73;;;24.50;46.50;;;;;;5103421;28;20471;-82
2021/04/11 13:23:15;;;;;;;2.27;1.80;;;23.90;45.80;;;;;;5099168;28;21000;-82
2021/04/11 13:25:47;;;;;;;1.40;1.30;;;23.30;47.00;;;;;;5089333;28;20492;-82
2021/04/11 13:28:25;;;;;;;1.13;1.13;;;23.00;47.70;;;;;;5096541;28;20520;-81
2021/04/11 13:31:00;;;;;;;1.07;0.97;;;22.90;48.90;;;;;;5099431;28;20603;-82
2021/04/11 13:33:32;;;;;;;1.50;1.17;;;22.60;48.70;;;;;;5100076;28;20463;-82
2021/04/11 13:36:04;;;;;;;1.37;1.27;;;22.40;49.20;;;;;;5100434;28;20448;-82
2021/04/11 13:38:33;;;;;;;1.53;1.10;;;22.30;49.50;;;;;;5098991;28;20461;-82
2021/04/11 13:41:21;;;;;;;1.23;1.20;;;22.20;49.60;;;;;;5098905;28;20464;-81
2021/04/11 13:43:59;;;;;;;1.20;0.90;;;22.20;49.80;;;;;;5099150;28;20447;-82
2021/04/11 13:46:35;;;;;;;1.10;1.00;;;22.00;49.00;;;;;;5100061;28;20526;-82
2021/04/11 13:49:08;;;;;;;2.43;1.20;;;21.90;49.00;;;;;;5099060;28;20529;-82